sensor_id;sensor_type;location;lat;lon;timestamp;temperature;humidity
80234;DHT22;69712;42.142;24.766;2024-03-22T00:01:53;9.20;63.50
80234;DHT22;69712;42.142;24.766;2024-03-22T00:04:19;9.00;64.40
80234;DHT22;69712;42.142;24.766;2024-03-22T00:06:48;8.70;65.80
80234;DHT22;69712;42.142;24.766;2024-03-22T00:09:14;8.50;66.70
80234;DHT22;69712;42.142;24.766;2024-03-22T00:11:41;8.40;67.10
80234;DHT22;69712;42.142;24.766;2024-03-22T00:14:08;8.10;68.10
80234;DHT22;69712;42.142;24.766;2024-03-22T00:16:34;8.10;69.00
80234;DHT22;69712;42.142;24.766;2024-03-22T00:19:00;8.00;69.40
80234;DHT22;69712;42.142;24.766;2024-03-22T00:21:26;7.80;69.80
80234;DHT22;69712;42.142;24.766;2024-03-22T00:23:52;7.90;69.70
80234;DHT22;69712;42.142;24.766;2024-03-22T00:26:18;7.90;69.70
80234;DHT22;69712;42.142;24.766;2024-03-22T00:28:43;7.90;69.30
80234;DHT22;69712;42.142;24.766;2024-03-22T00:31:09;7.90;69.50
80234;DHT22;69712;42.142;24.766;2024-03-22T00:33:35;7.80;69.80
80234;DHT22;69712;42.142;24.766;2024-03-22T00:36:01;7.80;70.10
80234;DHT22;69712;42.142;24.766;2024-03-22T00:38:27;7.80;70.20
80234;DHT22;69712;42.142;24.766;2024-03-22T00:40:53;7.70;70.50
80234;DHT22;69712;42.142;24.766;2024-03-22T00:43:19;7.90;69.70
80234;DHT22;69712;42.142;24.766;2024-03-22T00:45:45;7.90;69.20
80234;DHT22;69712;42.142;24.766;2024-03-22T00:48:11;7.80;69.10
80234;DHT22;69712;42.142;24.766;2024-03-22T00:50:37;7.50;69.90
80234;DHT22;69712;42.142;24.766;2024-03-22T00:53:03;7.50;69.90
80234;DHT22;69712;42.142;24.766;2024-03-22T00:55:31;7.70;69.40
80234;DHT22;69712;42.142;24.766;2024-03-22T00:57:56;7.70;69.00
80234;DHT22;69712;42.142;24.766;2024-03-22T01:00:23;8.10;68.00
80234;DHT22;69712;42.142;24.766;2024-03-22T01:02:49;8.00;67.90
80234;DHT22;69712;42.142;24.766;2024-03-22T01:05:16;8.10;68.10
80234;DHT22;69712;42.142;24.766;2024-03-22T01:07:42;8.20;67.70
80234;DHT22;69712;42.142;24.766;2024-03-22T01:10:08;8.30;67.50
80234;DHT22;69712;42.142;24.766;2024-03-22T01:12:34;8.40;66.80
80234;DHT22;69712;42.142;24.766;2024-03-22T01:14:59;8.40;66.80
80234;DHT22;69712;42.142;24.766;2024-03-22T01:17:25;8.50;66.70
80234;DHT22;69712;42.142;24.766;2024-03-22T01:19:51;8.50;66.50
80234;DHT22;69712;42.142;24.766;2024-03-22T01:22:18;8.50;66.20
80234;DHT22;69712;42.142;24.766;2024-03-22T01:24:44;8.60;66.50
80234;DHT22;69712;42.142;24.766;2024-03-22T01:27:10;8.50;66.80
80234;DHT22;69712;42.142;24.766;2024-03-22T01:29:36;8.60;66.70
80234;DHT22;69712;42.142;24.766;2024-03-22T01:32:03;8.50;66.50
80234;DHT22;69712;42.142;24.766;2024-03-22T01:34:29;8.40;67.20
80234;DHT22;69712;42.142;24.766;2024-03-22T01:36:55;8.20;67.90
80234;DHT22;69712;42.142;24.766;2024-03-22T01:39:21;8.10;68.40
80234;DHT22;69712;42.142;24.766;2024-03-22T01:41:52;8.10;68.50
80234;DHT22;69712;42.142;24.766;2024-03-22T01:44:18;8.30;68.00
80234;DHT22;69712;42.142;24.766;2024-03-22T01:46:44;8.40;67.40
80234;DHT22;69712;42.142;24.766;2024-03-22T01:49:12;8.20;68.00
80234;DHT22;69712;42.142;24.766;2024-03-22T01:51:42;8.10;68.40
80234;DHT22;69712;42.142;24.766;2024-03-22T01:54:11;8.00;68.50
80234;DHT22;69712;42.142;24.766;2024-03-22T01:56:37;8.20;68.20
80234;DHT22;69712;42.142;24.766;2024-03-22T01:59:07;8.30;67.90
80234;DHT22;69712;42.142;24.766;2024-03-22T02:01:33;8.40;67.10
80234;DHT22;69712;42.142;24.766;2024-03-22T02:04:00;8.40;67.20
80234;DHT22;69712;42.142;24.766;2024-03-22T02:06:26;8.40;67.10
80234;DHT22;69712;42.142;24.766;2024-03-22T02:08:52;8.30;67.40
80234;DHT22;69712;42.142;24.766;2024-03-22T02:11:17;8.20;67.70
80234;DHT22;69712;42.142;24.766;2024-03-22T02:13:44;8.20;68.00
80234;DHT22;69712;42.142;24.766;2024-03-22T02:16:10;8.10;68.70
80234;DHT22;69712;42.142;24.766;2024-03-22T02:18:36;8.10;68.40
80234;DHT22;69712;42.142;24.766;2024-03-22T02:21:01;8.20;68.30
80234;DHT22;69712;42.142;24.766;2024-03-22T02:23:34;8.20;67.80
80234;DHT22;69712;42.142;24.766;2024-03-22T02:26:01;8.30;67.50
80234;DHT22;69712;42.142;24.766;2024-03-22T02:28:28;8.30;67.60
80234;DHT22;69712;42.142;24.766;2024-03-22T02:30:53;8.20;67.20
80234;DHT22;69712;42.142;24.766;2024-03-22T02:33:20;8.40;67.40
80234;DHT22;69712;42.142;24.766;2024-03-22T02:35:49;8.40;67.10
80234;DHT22;69712;42.142;24.766;2024-03-22T02:38:15;8.40;66.90
80234;DHT22;69712;42.142;24.766;2024-03-22T02:40:43;8.40;66.80
80234;DHT22;69712;42.142;24.766;2024-03-22T02:43:09;8.50;66.10
80234;DHT22;69712;42.142;24.766;2024-03-22T02:45:35;8.70;65.50
80234;DHT22;69712;42.142;24.766;2024-03-22T02:48:00;8.80;65.00
80234;DHT22;69712;42.142;24.766;2024-03-22T02:50:26;8.80;65.10
80234;DHT22;69712;42.142;24.766;2024-03-22T02:52:52;8.70;65.40
80234;DHT22;69712;42.142;24.766;2024-03-22T02:55:18;8.70;65.60
80234;DHT22;69712;42.142;24.766;2024-03-22T02:57:44;8.70;65.30
80234;DHT22;69712;42.142;24.766;2024-03-22T03:00:10;8.70;65.20
80234;DHT22;69712;42.142;24.766;2024-03-22T03:02:36;8.60;65.60
80234;DHT22;69712;42.142;24.766;2024-03-22T03:05:02;8.50;66.10
80234;DHT22;69712;42.142;24.766;2024-03-22T03:07:28;8.50;66.80
80234;DHT22;69712;42.142;24.766;2024-03-22T03:09:54;8.60;66.10
80234;DHT22;69712;42.142;24.766;2024-03-22T03:12:21;8.80;65.60
80234;DHT22;69712;42.142;24.766;2024-03-22T03:14:47;8.90;65.00
80234;DHT22;69712;42.142;24.766;2024-03-22T03:17:13;8.90;65.00
80234;DHT22;69712;42.142;24.766;2024-03-22T03:19:38;9.00;64.20
80234;DHT22;69712;42.142;24.766;2024-03-22T03:22:07;9.00;63.90
80234;DHT22;69712;42.142;24.766;2024-03-22T03:24:33;8.90;64.30
80234;DHT22;69712;42.142;24.766;2024-03-22T03:26:59;8.80;64.70
80234;DHT22;69712;42.142;24.766;2024-03-22T03:29:25;8.70;64.70
80234;DHT22;69712;42.142;24.766;2024-03-22T03:31:50;8.60;65.50
80234;DHT22;69712;42.142;24.766;2024-03-22T03:34:16;8.40;66.10
80234;DHT22;69712;42.142;24.766;2024-03-22T03:36:42;8.30;66.10
80234;DHT22;69712;42.142;24.766;2024-03-22T03:39:08;8.30;66.20
80234;DHT22;69712;42.142;24.766;2024-03-22T03:41:33;8.10;67.10
80234;DHT22;69712;42.142;24.766;2024-03-22T03:43:59;8.10;67.30
80234;DHT22;69712;42.142;24.766;2024-03-22T03:46:25;8.20;66.40
80234;DHT22;69712;42.142;24.766;2024-03-22T03:48:51;8.40;66.10
80234;DHT22;69712;42.142;24.766;2024-03-22T03:51:17;8.20;66.10
80234;DHT22;69712;42.142;24.766;2024-03-22T03:53:42;8.20;66.50
80234;DHT22;69712;42.142;24.766;2024-03-22T03:56:08;8.10;66.80
80234;DHT22;69712;42.142;24.766;2024-03-22T03:58:34;7.90;67.10
80234;DHT22;69712;42.142;24.766;2024-03-22T04:01:05;7.90;67.50
80234;DHT22;69712;42.142;24.766;2024-03-22T04:03:31;7.90;67.60
80234;DHT22;69712;42.142;24.766;2024-03-22T04:05:57;8.00;67.40
80234;DHT22;69712;42.142;24.766;2024-03-22T04:08:27;7.70;68.00
80234;DHT22;69712;42.142;24.766;2024-03-22T04:10:56;7.60;68.60
80234;DHT22;69712;42.142;24.766;2024-03-22T04:13:23;7.60;68.60
80234;DHT22;69712;42.142;24.766;2024-03-22T04:15:49;7.50;69.30
80234;DHT22;69712;42.142;24.766;2024-03-22T04:18:15;7.40;69.50
80234;DHT22;69712;42.142;24.766;2024-03-22T04:20:40;7.60;68.90
80234;DHT22;69712;42.142;24.766;2024-03-22T04:23:06;7.70;68.60
80234;DHT22;69712;42.142;24.766;2024-03-22T04:25:32;7.50;69.00
80234;DHT22;69712;42.142;24.766;2024-03-22T04:27:58;7.60;68.80
80234;DHT22;69712;42.142;24.766;2024-03-22T04:30:23;7.40;69.40
80234;DHT22;69712;42.142;24.766;2024-03-22T04:32:49;7.50;69.10
80234;DHT22;69712;42.142;24.766;2024-03-22T04:35:15;7.60;69.00
80234;DHT22;69712;42.142;24.766;2024-03-22T04:37:41;7.70;68.50
80234;DHT22;69712;42.142;24.766;2024-03-22T04:40:07;7.80;68.20
80234;DHT22;69712;42.142;24.766;2024-03-22T04:42:35;7.60;68.20
80234;DHT22;69712;42.142;24.766;2024-03-22T04:45:01;7.70;68.70
80234;DHT22;69712;42.142;24.766;2024-03-22T04:47:26;7.60;68.90
80234;DHT22;69712;42.142;24.766;2024-03-22T04:49:52;7.70;68.50
80234;DHT22;69712;42.142;24.766;2024-03-22T04:52:18;7.60;68.10
80234;DHT22;69712;42.142;24.766;2024-03-22T04:54:44;7.60;68.70
80234;DHT22;69712;42.142;24.766;2024-03-22T04:57:10;7.60;68.50
80234;DHT22;69712;42.142;24.766;2024-03-22T04:59:35;7.70;66.90
80234;DHT22;69712;42.142;24.766;2024-03-22T05:02:01;7.90;66.10
80234;DHT22;69712;42.142;24.766;2024-03-22T05:04:27;8.00;65.10
80234;DHT22;69712;42.142;24.766;2024-03-22T05:06:53;8.00;65.40
80234;DHT22;69712;42.142;24.766;2024-03-22T05:09:18;7.80;64.80
80234;DHT22;69712;42.142;24.766;2024-03-22T05:11:44;7.70;65.80
80234;DHT22;69712;42.142;24.766;2024-03-22T05:14:15;7.70;65.70
80234;DHT22;69712;42.142;24.766;2024-03-22T05:16:41;7.80;64.90
80234;DHT22;69712;42.142;24.766;2024-03-22T05:19:07;7.90;65.30
80234;DHT22;69712;42.142;24.766;2024-03-22T05:21:33;8.00;64.70
80234;DHT22;69712;42.142;24.766;2024-03-22T05:23:59;8.20;64.10
80234;DHT22;69712;42.142;24.766;2024-03-22T05:26:25;7.90;64.60
80234;DHT22;69712;42.142;24.766;2024-03-22T05:28:51;7.90;65.20
80234;DHT22;69712;42.142;24.766;2024-03-22T05:31:18;8.00;64.60
80234;DHT22;69712;42.142;24.766;2024-03-22T05:33:43;8.10;63.90
80234;DHT22;69712;42.142;24.766;2024-03-22T05:36:09;8.10;64.00
80234;DHT22;69712;42.142;24.766;2024-03-22T05:38:35;8.40;63.40
80234;DHT22;69712;42.142;24.766;2024-03-22T05:41:04;8.70;62.30
80234;DHT22;69712;42.142;24.766;2024-03-22T05:43:30;9.00;60.90
80234;DHT22;69712;42.142;24.766;2024-03-22T05:45:55;9.30;61.20
80234;DHT22;69712;42.142;24.766;2024-03-22T05:48:21;9.40;60.40
80234;DHT22;69712;42.142;24.766;2024-03-22T05:50:47;9.60;60.10
80234;DHT22;69712;42.142;24.766;2024-03-22T05:53:13;10.00;60.00
80234;DHT22;69712;42.142;24.766;2024-03-22T05:55:38;10.30;57.90
80234;DHT22;69712;42.142;24.766;2024-03-22T06:01:26;11.00;54.90
80234;DHT22;69712;42.142;24.766;2024-03-22T06:03:52;11.60;53.80
80234;DHT22;69712;42.142;24.766;2024-03-22T06:06:18;11.70;53.20
80234;DHT22;69712;42.142;24.766;2024-03-22T06:08:44;11.90;52.00
80234;DHT22;69712;42.142;24.766;2024-03-22T06:11:11;12.30;51.40
80234;DHT22;69712;42.142;24.766;2024-03-22T06:13:37;12.90;49.60
80234;DHT22;69712;42.142;24.766;2024-03-22T06:16:03;13.00;47.80
80234;DHT22;69712;42.142;24.766;2024-03-22T06:18:29;13.60;46.80
80234;DHT22;69712;42.142;24.766;2024-03-22T06:20:55;13.40;47.00
80234;DHT22;69712;42.142;24.766;2024-03-22T06:23:21;14.10;46.30
80234;DHT22;69712;42.142;24.766;2024-03-22T06:25:54;14.40;44.70
80234;DHT22;69712;42.142;24.766;2024-03-22T06:28:20;15.70;41.80
80234;DHT22;69712;42.142;24.766;2024-03-22T06:30:46;16.70;39.40
80234;DHT22;69712;42.142;24.766;2024-03-22T06:33:12;16.30;39.80
80234;DHT22;69712;42.142;24.766;2024-03-22T06:35:38;17.00;40.40
80234;DHT22;69712;42.142;24.766;2024-03-22T06:38:16;16.50;39.80
80234;DHT22;69712;42.142;24.766;2024-03-22T06:40:42;16.90;38.90
80234;DHT22;69712;42.142;24.766;2024-03-22T06:43:08;17.50;37.80
80234;DHT22;69712;42.142;24.766;2024-03-22T06:45:38;17.50;37.10
80234;DHT22;69712;42.142;24.766;2024-03-22T06:48:04;15.60;39.80
80234;DHT22;69712;42.142;24.766;2024-03-22T06:50:30;15.60;40.00
80234;DHT22;69712;42.142;24.766;2024-03-22T06:52:56;16.50;38.60
80234;DHT22;69712;42.142;24.766;2024-03-22T06:55:22;16.30;38.30
80234;DHT22;69712;42.142;24.766;2024-03-22T06:57:49;16.50;38.00
80234;DHT22;69712;42.142;24.766;2024-03-22T07:00:16;17.00;36.60
80234;DHT22;69712;42.142;24.766;2024-03-22T07:02:42;17.20;37.80
80234;DHT22;69712;42.142;24.766;2024-03-22T07:05:08;18.30;35.00
80234;DHT22;69712;42.142;24.766;2024-03-22T07:07:35;19.20;33.20
80234;DHT22;69712;42.142;24.766;2024-03-22T07:10:04;20.10;32.60
80234;DHT22;69712;42.142;24.766;2024-03-22T07:12:31;20.60;30.40
80234;DHT22;69712;42.142;24.766;2024-03-22T07:14:58;20.90;30.00
80234;DHT22;69712;42.142;24.766;2024-03-22T07:17:24;21.30;29.30
80234;DHT22;69712;42.142;24.766;2024-03-22T07:19:51;22.30;29.10
80234;DHT22;69712;42.142;24.766;2024-03-22T07:22:17;23.00;27.40
80234;DHT22;69712;42.142;24.766;2024-03-22T07:24:43;23.30;27.20
80234;DHT22;69712;42.142;24.766;2024-03-22T07:27:10;23.00;27.00
80234;DHT22;69712;42.142;24.766;2024-03-22T07:29:36;23.30;26.60
80234;DHT22;69712;42.142;24.766;2024-03-22T07:32:02;23.70;27.60
80234;DHT22;69712;42.142;24.766;2024-03-22T07:34:29;23.50;27.20
80234;DHT22;69712;42.142;24.766;2024-03-22T07:36:55;23.30;27.50
80234;DHT22;69712;42.142;24.766;2024-03-22T07:39:21;22.90;28.30
80234;DHT22;69712;42.142;24.766;2024-03-22T07:41:46;23.60;31.30
80234;DHT22;69712;42.142;24.766;2024-03-22T07:44:12;24.20;26.60
80234;DHT22;69712;42.142;24.766;2024-03-22T07:46:38;23.70;26.90
80234;DHT22;69712;42.142;24.766;2024-03-22T07:49:04;24.70;27.20
80234;DHT22;69712;42.142;24.766;2024-03-22T07:51:30;25.60;25.20
80234;DHT22;69712;42.142;24.766;2024-03-22T07:53:56;26.20;24.20
80234;DHT22;69712;42.142;24.766;2024-03-22T07:56:22;25.50;26.10
80234;DHT22;69712;42.142;24.766;2024-03-22T07:58:48;24.40;26.80
80234;DHT22;69712;42.142;24.766;2024-03-22T08:01:14;25.40;25.30
80234;DHT22;69712;42.142;24.766;2024-03-22T08:03:39;26.20;25.20
80234;DHT22;69712;42.142;24.766;2024-03-22T08:06:05;26.70;23.40
80234;DHT22;69712;42.142;24.766;2024-03-22T08:08:31;25.20;27.70
80234;DHT22;69712;42.142;24.766;2024-03-22T08:10:57;22.40;29.90
80234;DHT22;69712;42.142;24.766;2024-03-22T08:13:22;23.00;27.80
80234;DHT22;69712;42.142;24.766;2024-03-22T08:15:48;24.40;28.60
80234;DHT22;69712;42.142;24.766;2024-03-22T08:18:14;24.20;27.80
80234;DHT22;69712;42.142;24.766;2024-03-22T08:20:40;25.00;24.90
80234;DHT22;69712;42.142;24.766;2024-03-22T08:23:06;26.10;27.50
80234;DHT22;69712;42.142;24.766;2024-03-22T08:25:32;26.30;26.90
80234;DHT22;69712;42.142;24.766;2024-03-22T08:27:58;26.90;23.80
80234;DHT22;69712;42.142;24.766;2024-03-22T08:30:24;27.10;25.10
80234;DHT22;69712;42.142;24.766;2024-03-22T08:32:53;25.30;24.50
80234;DHT22;69712;42.142;24.766;2024-03-22T08:35:19;25.50;23.60
80234;DHT22;69712;42.142;24.766;2024-03-22T08:37:45;23.10;25.90
80234;DHT22;69712;42.142;24.766;2024-03-22T08:40:12;21.30;32.30
80234;DHT22;69712;42.142;24.766;2024-03-22T08:42:39;20.40;36.50
80234;DHT22;69712;42.142;24.766;2024-03-22T08:45:06;21.80;34.70
80234;DHT22;69712;42.142;24.766;2024-03-22T08:47:32;22.80;29.60
80234;DHT22;69712;42.142;24.766;2024-03-22T08:49:59;23.90;27.50
80234;DHT22;69712;42.142;24.766;2024-03-22T08:52:25;24.30;26.40
80234;DHT22;69712;42.142;24.766;2024-03-22T08:54:52;25.10;25.30
80234;DHT22;69712;42.142;24.766;2024-03-22T08:57:18;24.40;24.90
80234;DHT22;69712;42.142;24.766;2024-03-22T08:59:45;25.70;25.30
80234;DHT22;69712;42.142;24.766;2024-03-22T09:02:11;26.30;22.70
80234;DHT22;69712;42.142;24.766;2024-03-22T09:04:38;24.90;23.30
80234;DHT22;69712;42.142;24.766;2024-03-22T09:07:04;24.50;23.70
80234;DHT22;69712;42.142;24.766;2024-03-22T09:09:29;25.50;24.90
80234;DHT22;69712;42.142;24.766;2024-03-22T09:11:55;25.20;23.50
80234;DHT22;69712;42.142;24.766;2024-03-22T09:14:21;26.00;23.40
80234;DHT22;69712;42.142;24.766;2024-03-22T09:16:46;25.30;22.30
80234;DHT22;69712;42.142;24.766;2024-03-22T09:19:12;24.00;24.20
80234;DHT22;69712;42.142;24.766;2024-03-22T09:21:38;23.00;24.70
80234;DHT22;69712;42.142;24.766;2024-03-22T09:24:04;24.00;25.50
80234;DHT22;69712;42.142;24.766;2024-03-22T09:26:31;25.20;23.50
80234;DHT22;69712;42.142;24.766;2024-03-22T09:28:57;25.30;21.60
80234;DHT22;69712;42.142;24.766;2024-03-22T09:31:23;25.10;23.20
80234;DHT22;69712;42.142;24.766;2024-03-22T09:33:49;24.30;22.80
80234;DHT22;69712;42.142;24.766;2024-03-22T09:36:15;23.80;24.10
80234;DHT22;69712;42.142;24.766;2024-03-22T09:38:41;24.50;24.70
80234;DHT22;69712;42.142;24.766;2024-03-22T09:41:07;24.80;22.30
80234;DHT22;69712;42.142;24.766;2024-03-22T09:43:33;25.50;23.80
80234;DHT22;69712;42.142;24.766;2024-03-22T09:46:01;26.90;21.90
80234;DHT22;69712;42.142;24.766;2024-03-22T09:48:31;27.20;23.10
80234;DHT22;69712;42.142;24.766;2024-03-22T09:50:57;28.00;20.40
80234;DHT22;69712;42.142;24.766;2024-03-22T09:53:25;28.80;20.20
80234;DHT22;69712;42.142;24.766;2024-03-22T09:55:52;29.30;19.70
80234;DHT22;69712;42.142;24.766;2024-03-22T09:58:23;28.80;20.50
80234;DHT22;69712;42.142;24.766;2024-03-22T10:00:50;27.40;21.10
80234;DHT22;69712;42.142;24.766;2024-03-22T10:03:15;28.10;20.60
80234;DHT22;69712;42.142;24.766;2024-03-22T10:05:41;28.20;20.00
80234;DHT22;69712;42.142;24.766;2024-03-22T10:08:07;27.90;18.90
80234;DHT22;69712;42.142;24.766;2024-03-22T10:10:33;28.00;20.30
80234;DHT22;69712;42.142;24.766;2024-03-22T10:13:03;28.00;19.80
80234;DHT22;69712;42.142;24.766;2024-03-22T10:15:30;27.60;18.90
80234;DHT22;69712;42.142;24.766;2024-03-22T10:17:57;27.10;20.20
80234;DHT22;69712;42.142;24.766;2024-03-22T10:20:23;26.30;20.30
80234;DHT22;69712;42.142;24.766;2024-03-22T10:22:58;26.00;20.70
80234;DHT22;69712;42.142;24.766;2024-03-22T10:25:26;25.60;20.80
80234;DHT22;69712;42.142;24.766;2024-03-22T10:27:55;24.70;20.70
80234;DHT22;69712;42.142;24.766;2024-03-22T10:30:23;23.90;22.20
80234;DHT22;69712;42.142;24.766;2024-03-22T10:32:49;24.50;21.40
80234;DHT22;69712;42.142;24.766;2024-03-22T10:35:15;23.80;21.60
80234;DHT22;69712;42.142;24.766;2024-03-22T10:37:42;23.40;23.20
80234;DHT22;69712;42.142;24.766;2024-03-22T10:40:09;23.00;22.70
80234;DHT22;69712;42.142;24.766;2024-03-22T10:42:36;22.70;24.10
80234;DHT22;69712;42.142;24.766;2024-03-22T10:45:02;22.40;24.30
80234;DHT22;69712;42.142;24.766;2024-03-22T10:47:30;22.00;24.80
80234;DHT22;69712;42.142;24.766;2024-03-22T10:50:17;23.10;23.60
80234;DHT22;69712;42.142;24.766;2024-03-22T10:52:48;23.30;22.70
80234;DHT22;69712;42.142;24.766;2024-03-22T10:55:33;23.40;22.60
80234;DHT22;69712;42.142;24.766;2024-03-22T10:57:59;23.60;23.50
80234;DHT22;69712;42.142;24.766;2024-03-22T11:00:30;23.90;22.50
80234;DHT22;69712;42.142;24.766;2024-03-22T11:02:56;23.80;21.90
80234;DHT22;69712;42.142;24.766;2024-03-22T11:05:22;23.60;21.60
80234;DHT22;69712;42.142;24.766;2024-03-22T11:08:02;23.90;22.30
80234;DHT22;69712;42.142;24.766;2024-03-22T11:10:30;23.70;22.20
80234;DHT22;69712;42.142;24.766;2024-03-22T11:13:01;23.00;23.20
80234;DHT22;69712;42.142;24.766;2024-03-22T11:15:31;23.40;22.20
80234;DHT22;69712;42.142;24.766;2024-03-22T11:17:57;24.10;20.70
80234;DHT22;69712;42.142;24.766;2024-03-22T11:20:23;25.10;20.40
80234;DHT22;69712;42.142;24.766;2024-03-22T11:22:51;24.20;20.00
80234;DHT22;69712;42.142;24.766;2024-03-22T11:25:16;24.60;19.90
80234;DHT22;69712;42.142;24.766;2024-03-22T11:27:43;25.20;20.30
80234;DHT22;69712;42.142;24.766;2024-03-22T11:30:09;24.90;18.90
80234;DHT22;69712;42.142;24.766;2024-03-22T11:32:35;25.00;20.50
80234;DHT22;69712;42.142;24.766;2024-03-22T11:35:11;24.90;20.80
80234;DHT22;69712;42.142;24.766;2024-03-22T11:37:38;24.70;20.80
80234;DHT22;69712;42.142;24.766;2024-03-22T11:40:05;24.60;20.30
80234;DHT22;69712;42.142;24.766;2024-03-22T11:42:34;26.00;20.60
80234;DHT22;69712;42.142;24.766;2024-03-22T11:45:01;26.60;19.00
80234;DHT22;69712;42.142;24.766;2024-03-22T11:47:28;26.70;18.30
80234;DHT22;69712;42.142;24.766;2024-03-22T11:49:55;25.90;18.00
80234;DHT22;69712;42.142;24.766;2024-03-22T11:52:25;25.50;19.30
80234;DHT22;69712;42.142;24.766;2024-03-22T11:54:52;24.70;19.90
80234;DHT22;69712;42.142;24.766;2024-03-22T11:57:20;22.80;22.30
80234;DHT22;69712;42.142;24.766;2024-03-22T11:59:45;22.80;21.00
80234;DHT22;69712;42.142;24.766;2024-03-22T12:02:11;23.20;21.20
80234;DHT22;69712;42.142;24.766;2024-03-22T12:04:42;22.60;22.90
80234;DHT22;69712;42.142;24.766;2024-03-22T12:07:14;22.90;21.60
80234;DHT22;69712;42.142;24.766;2024-03-22T12:09:49;22.10;22.40
80234;DHT22;69712;42.142;24.766;2024-03-22T12:12:15;21.50;22.00
80234;DHT22;69712;42.142;24.766;2024-03-22T12:14:40;22.10;23.30
80234;DHT22;69712;42.142;24.766;2024-03-22T12:17:07;22.60;23.40
80234;DHT22;69712;42.142;24.766;2024-03-22T12:19:34;22.00;22.50
80234;DHT22;69712;42.142;24.766;2024-03-22T12:22:00;21.80;22.40
80234;DHT22;69712;42.142;24.766;2024-03-22T12:24:26;21.50;22.00
80234;DHT22;69712;42.142;24.766;2024-03-22T12:26:53;21.80;21.30
80234;DHT22;69712;42.142;24.766;2024-03-22T12:29:20;22.40;22.40
80234;DHT22;69712;42.142;24.766;2024-03-22T12:31:46;22.10;22.20
80234;DHT22;69712;42.142;24.766;2024-03-22T12:34:12;22.60;21.60
80234;DHT22;69712;42.142;24.766;2024-03-22T12:36:38;22.90;20.70
80234;DHT22;69712;42.142;24.766;2024-03-22T12:39:04;21.80;21.20
80234;DHT22;69712;42.142;24.766;2024-03-22T12:41:30;22.10;21.90
80234;DHT22;69712;42.142;24.766;2024-03-22T12:43:57;21.90;22.40
80234;DHT22;69712;42.142;24.766;2024-03-22T12:46:23;21.90;22.60
80234;DHT22;69712;42.142;24.766;2024-03-22T12:48:49;22.20;22.80
80234;DHT22;69712;42.142;24.766;2024-03-22T12:51:15;22.10;22.70
80234;DHT22;69712;42.142;24.766;2024-03-22T12:53:41;22.60;22.20
80234;DHT22;69712;42.142;24.766;2024-03-22T12:56:07;22.60;22.00
80234;DHT22;69712;42.142;24.766;2024-03-22T12:58:33;22.50;21.90
80234;DHT22;69712;42.142;24.766;2024-03-22T13:00:59;22.60;21.80
80234;DHT22;69712;42.142;24.766;2024-03-22T13:03:29;22.80;22.00
80234;DHT22;69712;42.142;24.766;2024-03-22T13:05:55;22.60;21.80
80234;DHT22;69712;42.142;24.766;2024-03-22T13:08:21;22.30;21.60
80234;DHT22;69712;42.142;24.766;2024-03-22T13:10:47;22.10;22.30
80234;DHT22;69712;42.142;24.766;2024-03-22T13:13:13;22.30;22.10
80234;DHT22;69712;42.142;24.766;2024-03-22T13:15:44;22.10;22.70
80234;DHT22;69712;42.142;24.766;2024-03-22T13:18:12;22.40;22.10
80234;DHT22;69712;42.142;24.766;2024-03-22T13:20:38;20.90;21.60
80234;DHT22;69712;42.142;24.766;2024-03-22T13:23:04;21.20;22.80
80234;DHT22;69712;42.142;24.766;2024-03-22T13:25:30;21.50;23.40
80234;DHT22;69712;42.142;24.766;2024-03-22T13:27:56;22.20;21.90
80234;DHT22;69712;42.142;24.766;2024-03-22T13:30:22;22.40;23.00
80234;DHT22;69712;42.142;24.766;2024-03-22T13:32:48;22.60;21.80
80234;DHT22;69712;42.142;24.766;2024-03-22T13:35:14;23.40;20.60
80234;DHT22;69712;42.142;24.766;2024-03-22T13:37:41;23.40;20.50
80234;DHT22;69712;42.142;24.766;2024-03-22T13:40:07;23.70;20.90
80234;DHT22;69712;42.142;24.766;2024-03-22T13:42:34;23.90;20.20
80234;DHT22;69712;42.142;24.766;2024-03-22T13:44:59;22.20;21.30
80234;DHT22;69712;42.142;24.766;2024-03-22T13:47:26;22.70;21.20
80234;DHT22;69712;42.142;24.766;2024-03-22T13:49:53;21.40;22.60
80234;DHT22;69712;42.142;24.766;2024-03-22T13:52:19;22.50;21.50
80234;DHT22;69712;42.142;24.766;2024-03-22T13:54:46;23.60;20.70
80234;DHT22;69712;42.142;24.766;2024-03-22T13:57:12;23.40;19.80
80234;DHT22;69712;42.142;24.766;2024-03-22T13:59:38;23.40;19.90
80234;DHT22;69712;42.142;24.766;2024-03-22T14:02:06;23.20;19.80
80234;DHT22;69712;42.142;24.766;2024-03-22T14:04:31;23.40;19.90
80234;DHT22;69712;42.142;24.766;2024-03-22T14:06:58;23.00;20.70
80234;DHT22;69712;42.142;24.766;2024-03-22T14:09:23;21.70;22.30
80234;DHT22;69712;42.142;24.766;2024-03-22T14:11:49;20.80;23.00
80234;DHT22;69712;42.142;24.766;2024-03-22T14:14:15;20.80;22.70
80234;DHT22;69712;42.142;24.766;2024-03-22T14:16:41;21.00;23.10
80234;DHT22;69712;42.142;24.766;2024-03-22T14:19:07;20.40;23.30
80234;DHT22;69712;42.142;24.766;2024-03-22T14:21:34;20.10;23.50
80234;DHT22;69712;42.142;24.766;2024-03-22T14:24:00;20.40;24.50
80234;DHT22;69712;42.142;24.766;2024-03-22T14:26:26;20.90;23.80
80234;DHT22;69712;42.142;24.766;2024-03-22T14:28:52;21.00;24.10
80234;DHT22;69712;42.142;24.766;2024-03-22T14:31:18;21.10;23.40
80234;DHT22;69712;42.142;24.766;2024-03-22T14:33:45;21.90;23.50
80234;DHT22;69712;42.142;24.766;2024-03-22T14:36:11;21.90;22.80
80234;DHT22;69712;42.142;24.766;2024-03-22T14:38:38;21.60;22.00
80234;DHT22;69712;42.142;24.766;2024-03-22T14:41:04;21.20;23.70
80234;DHT22;69712;42.142;24.766;2024-03-22T14:43:30;21.20;22.90
80234;DHT22;69712;42.142;24.766;2024-03-22T14:46:01;21.00;22.80
80234;DHT22;69712;42.142;24.766;2024-03-22T14:48:30;19.60;23.60
80234;DHT22;69712;42.142;24.766;2024-03-22T14:50:55;19.00;24.70
80234;DHT22;69712;42.142;24.766;2024-03-22T14:53:21;19.10;24.50
80234;DHT22;69712;42.142;24.766;2024-03-22T14:55:55;19.40;24.70
80234;DHT22;69712;42.142;24.766;2024-03-22T14:58:27;19.60;25.00
80234;DHT22;69712;42.142;24.766;2024-03-22T15:00:56;19.60;24.30
80234;DHT22;69712;42.142;24.766;2024-03-22T15:03:23;19.70;24.60
80234;DHT22;69712;42.142;24.766;2024-03-22T15:05:52;19.30;24.40
80234;DHT22;69712;42.142;24.766;2024-03-22T15:08:19;19.30;24.80
80234;DHT22;69712;42.142;24.766;2024-03-22T15:10:45;19.50;24.80
80234;DHT22;69712;42.142;24.766;2024-03-22T15:13:12;19.60;23.90
80234;DHT22;69712;42.142;24.766;2024-03-22T15:15:39;19.10;24.10
80234;DHT22;69712;42.142;24.766;2024-03-22T15:18:06;18.50;25.00
80234;DHT22;69712;42.142;24.766;2024-03-22T15:20:32;18.60;25.30
80234;DHT22;69712;42.142;24.766;2024-03-22T15:22:58;18.80;25.70